Time;durP1;ratioP1;P1;durP2;ratioP2;P2;SDS_P1;SDS_P2;PMS_P1;PMS_P2;Temp;Humidity;BMP_temperature;BMP_pressure;BME280_temperature;BME280_humidity;BME280_pressure;Samples;Min_cycle;Max_cycle;Signal;HPM_P1;HPM_P2
2023/01/03 00:01:39;;;;;;;17.95;10.13;;;12.00;99.90;;;;;;5087708;28;20212;-79
2023/01/03 00:04:28;;;;;;;17.98;10.95;;;12.00;99.90;;;;;;5078344;28;20304;-80
2023/01/03 00:07:32;;;;;;;17.23;10.43;;;12.00;99.90;;;;;;5085793;28;20226;-80
2023/01/03 00:10:21;;;;;;;18.60;10.20;;;12.00;99.90;;;;;;5073811;28;20219;-81
2023/01/03 00:13:10;;;;;;;15.85;10.90;;;12.00;99.90;;;;;;5063791;28;20219;-81
2023/01/03 00:15:59;;;;;;;14.07;9.50;;;12.00;99.90;;;;;;5075575;28;20326;-82
2023/01/03 00:18:48;;;;;;;16.85;10.75;;;12.00;99.90;;;;;;5082609;28;20231;-80
2023/01/03 00:21:37;;;;;;;18.92;10.50;;;12.00;99.90;;;;;;5067062;28;20220;-79
2023/01/03 00:24:28;;;;;;;18.58;10.90;;;11.90;99.90;;;;;;5066538;28;20733;-79
2023/01/03 00:27:17;;;;;;;15.90;10.18;;;12.00;99.90;;;;;;5072192;28;20257;-77
2023/01/03 00:30:07;;;;;;;16.48;10.18;;;12.00;99.90;;;;;;5083868;28;20224;-80
2023/01/03 00:32:56;;;;;;;17.08;10.75;;;12.00;99.90;;;;;;5067892;28;20369;-80
2023/01/03 00:35:44;;;;;;;15.68;10.48;;;12.00;99.90;;;;;;5066033;28;20333;-81
2023/01/03 00:38:33;;;;;;;18.33;10.90;;;12.00;99.90;;;;;;5082396;28;20222;-81
2023/01/03 00:41:26;;;;;;;16.30;10.35;;;11.90;99.90;;;;;;5080640;28;20702;-83
2023/01/03 00:44:16;;;;;;;18.38;11.18;;;11.90;99.90;;;;;;5061989;28;20219;-82
2023/01/03 00:47:05;;;;;;;17.80;10.82;;;11.90;99.90;;;;;;5070932;28;20215;-81
2023/01/03 00:49:54;;;;;;;18.42;11.48;;;11.90;99.90;;;;;;5077779;28;20228;-81
2023/01/03 00:52:42;;;;;;;18.00;11.15;;;11.80;99.90;;;;;;5050905;28;20292;-82
2023/01/03 00:55:34;;;;;;;17.20;10.52;;;11.80;99.90;;;;;;5061263;28;20225;-79
2023/01/03 00:58:24;;;;;;;17.50;10.55;;;11.80;99.90;;;;;;5053481;28;20702;-80
2023/01/03 01:01:15;;;;;;;16.42;10.52;;;11.90;99.90;;;;;;5088297;28;20212;-80
2023/01/03 01:04:07;;;;;;;16.92;10.10;;;11.80;99.90;;;;;;5097136;27;20227;-80
2023/01/03 01:06:58;;;;;;;20.95;10.80;;;11.80;99.90;;;;;;5070044;28;20234;-80
2023/01/03 01:09:47;;;;;;;18.60;10.77;;;11.80;99.90;;;;;;5086855;28;20356;-79
2023/01/03 01:12:36;;;;;;;16.52;10.52;;;11.90;99.90;;;;;;5079571;28;20231;-80
2023/01/03 01:15:26;;;;;;;20.17;10.65;;;11.80;99.90;;;;;;5097593;27;20310;-81
2023/01/03 01:18:15;;;;;;;19.92;11.05;;;11.80;99.90;;;;;;5055129;28;20583;-80
2023/01/03 01:21:05;;;;;;;16.63;9.75;;;11.80;99.90;;;;;;5070234;28;20687;-81
2023/01/03 01:23:54;;;;;;;16.45;9.93;;;11.90;99.90;;;;;;5086492;28;20595;-81
2023/01/03 01:26:43;;;;;;;15.07;10.02;;;11.90;99.90;;;;;;5109402;27;20736;-82
2023/01/03 01:29:33;;;;;;;19.73;10.05;;;12.00;99.90;;;;;;5081036;28;20308;-81
2023/01/03 01:32:23;;;;;;;15.48;9.95;;;12.00;99.90;;;;;;5075248;28;20228;-81
2023/01/03 01:35:11;;;;;;;17.10;9.77;;;12.10;99.90;;;;;;5077828;28;20216;-78
2023/01/03 01:38:00;;;;;;;16.40;9.70;;;12.00;99.90;;;;;;5090321;28;20223;-80
2023/01/03 01:40:49;;;;;;;18.85;10.55;;;11.90;99.90;;;;;;5079496;28;20227;-79
2023/01/03 01:47:03;;;;;;;18.42;9.88;;;12.00;99.90;;;;;;5077424;28;20215;-80
2023/01/03 01:49:58;;;;;;;20.30;9.90;;;12.00;99.90;;;;;;5078359;28;20219;-79
2023/01/03 01:52:54;;;;;;;16.75;9.73;;;12.00;99.90;;;;;;5082321;28;20215;-79
2023/01/03 01:55:47;;;;;;;16.15;9.05;;;12.00;99.90;;;;;;5064692;28;20230;-79
2023/01/03 01:58:38;;;;;;;13.55;9.60;;;12.00;99.90;;;;;;5076673;28;20698;-80
2023/01/03 02:01:27;;;;;;;14.50;10.02;;;12.00;99.90;;;;;;5081286;28;20318;-79
2023/01/03 02:04:20;;;;;;;20.58;10.05;;;12.10;99.90;;;;;;5077834;28;20289;-79
2023/01/03 02:07:10;;;;;;;16.63;10.10;;;12.00;99.90;;;;;;5078085;28;20219;-79
2023/01/03 02:09:59;;;;;;;15.95;9.30;;;11.90;99.90;;;;;;5076940;28;20318;-80
2023/01/03 02:13:05;;;;;;;15.95;9.40;;;12.00;99.90;;;;;;5086037;28;20227;-77
2023/01/03 02:16:12;;;;;;;15.70;9.68;;;11.90;99.90;;;;;;5095845;28;20903;-78
2023/01/03 02:19:21;;;;;;;17.30;9.93;;;12.00;99.90;;;;;;5080948;28;20570;-79
2023/01/03 02:22:56;;;;;;;14.75;8.90;;;12.00;99.90;;;;;;5082383;28;20219;-79
2023/01/03 02:26:24;;;;;;;19.05;10.68;;;12.10;99.90;;;;;;5077921;28;20298;-80
2023/01/03 02:29:49;;;;;;;19.10;9.80;;;12.00;99.90;;;;;;5084099;28;20219;-81
2023/01/03 02:32:44;;;;;;;16.55;10.23;;;12.10;99.90;;;;;;5107899;27;20251;-81
2023/01/03 02:35:38;;;;;;;15.75;9.55;;;12.10;99.90;;;;;;5073133;28;20226;-80
2023/01/03 02:38:34;;;;;;;15.40;9.73;;;12.10;99.90;;;;;;5079185;28;20228;-81
2023/01/03 02:41:32;;;;;;;15.80;9.70;;;12.10;99.90;;;;;;5073835;28;20223;-81
2023/01/03 02:44:31;;;;;;;20.17;9.95;;;12.10;99.90;;;;;;5078130;28;21079;-80
2023/01/03 02:47:25;;;;;;;18.38;9.40;;;12.10;99.90;;;;;;5085722;28;20242;-82
2023/01/03 02:50:16;;;;;;;16.80;9.55;;;12.10;99.90;;;;;;5080182;28;20283;-82
2023/01/03 02:53:11;;;;;;;14.38;9.45;;;12.00;99.90;;;;;;5082171;28;20218;-82
2023/01/03 02:56:04;;;;;;;15.15;9.55;;;12.00;99.90;;;;;;5088821;28;20314;-81
2023/01/03 02:58:58;;;;;;;15.82;9.48;;;12.00;99.90;;;;;;5078275;28;20223;-80
2023/01/03 03:01:50;;;;;;;16.25;9.32;;;12.00;99.90;;;;;;5081307;28;20663;-82
2023/01/03 03:04:41;;;;;;;17.33;9.43;;;11.90;99.90;;;;;;5091608;27;20223;-83
2023/01/03 03:07:35;;;;;;;18.30;9.13;;;11.90;99.90;;;;;;5077323;28;20242;-84
2023/01/03 03:13:37;;;;;;;13.57;9.20;;;11.90;99.90;;;;;;5076821;28;20231;-83
2023/01/03 03:16:49;;;;;;;13.40;9.27;;;11.80;99.90;;;;;;5079991;28;20231;-83
2023/01/03 03:26:12;;;;;;;17.13;9.10;;;11.70;99.90;;;;;;5076339;28;20246;-83
2023/01/03 03:29:05;;;;;;;17.75;8.85;;;11.80;99.90;;;;;;5075954;28;20223;-81
2023/01/03 03:31:54;;;;;;;15.75;8.80;;;11.70;99.90;;;;;;5086658;28;20221;-80
2023/01/03 03:34:46;;;;;;;12.48;8.30;;;11.80;99.90;;;;;;5083046;28;20243;-80
2023/01/03 03:37:39;;;;;;;15.57;8.55;;;11.80;99.90;;;;;;5079786;28;20231;-81
2023/01/03 03:47:03;;;;;;;15.98;7.82;;;11.60;99.90;;;;;;5076045;28;20698;-80
2023/01/03 03:49:55;;;;;;;15.07;8.13;;;11.70;99.90;;;;;;5067433;28;20256;-82
2023/01/03 03:52:47;;;;;;;12.05;7.47;;;11.50;99.90;;;;;;5080390;28;20226;-82
2023/01/03 03:55:41;;;;;;;12.68;7.22;;;11.50;99.90;;;;;;5104200;27;20212;-79
2023/01/03 03:58:36;;;;;;;11.45;7.40;;;11.40;99.90;;;;;;5089632;28;20304;-80
2023/01/03 04:01:27;;;;;;;11.32;7.13;;;11.40;99.90;;;;;;5110624;27;20223;-79
2023/01/03 04:04:22;;;;;;;10.38;7.50;;;11.30;99.90;;;;;;5083319;28;20327;-81
2023/01/03 04:07:11;;;;;;;11.95;7.10;;;11.30;99.90;;;;;;5077624;28;20294;-80
2023/01/03 04:10:00;;;;;;;13.40;6.78;;;11.30;99.90;;;;;;5109702;27;20220;-81
2023/01/03 04:12:52;;;;;;;9.48;6.30;;;11.40;99.90;;;;;;5082028;28;20230;-80
2023/01/03 04:15:41;;;;;;;11.00;6.43;;;11.40;99.90;;;;;;5093163;27;20215;-80
2023/01/03 04:18:30;;;;;;;11.23;5.68;;;11.40;99.90;;;;;;5083402;28;20990;-81
2023/01/03 04:21:18;;;;;;;11.70;5.47;;;11.40;99.90;;;;;;5082158;28;20226;-80
2023/01/03 04:24:09;;;;;;;7.93;4.93;;;11.30;99.90;;;;;;5086299;28;20224;-80
2023/01/03 04:26:57;;;;;;;8.00;4.75;;;11.20;99.90;;;;;;5086556;28;20546;-78
2023/01/03 04:29:48;;;;;;;8.23;4.90;;;11.20;99.90;;;;;;5088974;28;20224;-79
2023/01/03 04:32:37;;;;;;;7.85;5.00;;;11.20;99.90;;;;;;5091844;28;20215;-82
2023/01/03 04:35:25;;;;;;;8.48;5.03;;;11.20;99.90;;;;;;5088559;28;20228;-80
2023/01/03 04:38:14;;;;;;;8.77;4.82;;;11.10;99.90;;;;;;5080034;28;20301;-79
2023/01/03 04:41:04;;;;;;;7.28;4.47;;;11.10;99.90;;;;;;5080509;28;20237;-81
2023/01/03 04:44:01;;;;;;;8.77;4.72;;;11.00;99.90;;;;;;5082762;28;20768;-82
2023/01/03 04:46:51;;;;;;;6.68;4.43;;;11.10;99.90;;;;;;5077243;28;20223;-81
2023/01/03 04:49:43;;;;;;;7.93;4.50;;;11.10;99.90;;;;;;5080985;28;20716;-81
2023/01/03 04:52:33;;;;;;;7.82;4.50;;;11.00;99.90;;;;;;5106195;27;20219;-81
2023/01/03 04:55:22;;;;;;;6.32;4.35;;;11.00;99.90;;;;;;5074924;28;20231;-78
2023/01/03 04:58:11;;;;;;;9.45;4.63;;;11.00;99.90;;;;;;5081672;28;20243;-80
2023/01/03 05:01:00;;;;;;;8.23;4.55;;;11.10;99.90;;;;;;5118228;27;20207;-83
2023/01/03 05:03:50;;;;;;;9.27;4.82;;;11.00;99.90;;;;;;5082955;28;20216;-81
2023/01/03 05:06:39;;;;;;;7.82;5.10;;;11.00;99.90;;;;;;5080913;28;20219;-81
2023/01/03 05:09:29;;;;;;;9.15;5.25;;;11.00;99.90;;;;;;5079412;28;20310;-81
2023/01/03 05:12:17;;;;;;;11.20;5.30;;;11.10;99.90;;;;;;5070959;28;20250;-80
2023/01/03 05:15:08;;;;;;;7.55;4.80;;;11.20;99.90;;;;;;5082566;28;20295;-80
2023/01/03 05:17:58;;;;;;;8.85;4.78;;;11.10;99.90;;;;;;5090588;28;20223;-81
2023/01/03 05:27:02;;;;;;;6.18;3.08;;;10.90;99.90;;;;;;5105834;27;20233;-83
2023/01/03 05:29:53;;;;;;;4.20;2.83;;;10.70;99.90;;;;;;5085983;28;20220;-80
2023/01/03 05:32:42;;;;;;;3.85;2.60;;;10.80;99.90;;;;;;5088047;28;20238;-79
2023/01/03 05:35:31;;;;;;;5.28;2.88;;;10.70;99.90;;;;;;5100513;27;20235;-81
2023/01/03 05:38:22;;;;;;;4.43;3.00;;;10.60;99.90;;;;;;5080919;28;21417;-81
2023/01/03 05:41:58;;;;;;;5.25;3.30;;;10.60;99.90;;;;;;5109029;27;20233;-80
2023/01/03 05:44:23;;;;;;;5.63;3.03;;;10.60;99.90;;;;;;5106964;27;20731;-81
2023/01/03 05:47:11;;;;;;;4.63;3.25;;;10.50;99.90;;;;;;5077104;28;20890;-81
2023/01/03 05:50:00;;;;;;;6.50;3.25;;;10.50;99.90;;;;;;5075871;28;20230;-82
2023/01/03 05:52:49;;;;;;;6.38;3.80;;;10.50;99.90;;;;;;5077197;28;20253;-80
2023/01/03 05:55:40;;;;;;;5.93;3.55;;;10.40;99.90;;;;;;5073130;28;20221;-81
2023/01/03 05:58:28;;;;;;;8.60;3.83;;;10.30;99.90;;;;;;5071943;28;20273;-82
2023/01/03 06:01:18;;;;;;;5.75;3.65;;;10.40;99.90;;;;;;5077016;28;20220;-81
2023/01/03 06:04:07;;;;;;;7.78;3.90;;;10.30;99.90;;;;;;5074533;28;20218;-82
2023/01/03 06:06:56;;;;;;;11.48;4.28;;;10.30;99.90;;;;;;5106996;27;20223;-82
2023/01/03 06:09:45;;;;;;;6.88;4.10;;;10.20;99.90;;;;;;5081393;28;20717;-82
2023/01/03 06:12:35;;;;;;;7.70;3.85;;;10.10;99.90;;;;;;5072222;28;20237;-81
2023/01/03 06:15:24;;;;;;;6.35;3.92;;;10.10;99.90;;;;;;5079260;28;20735;-80
2023/01/03 06:18:12;;;;;;;8.25;4.10;;;10.20;99.90;;;;;;5077661;28;20219;-80
2023/01/03 06:21:03;;;;;;;7.20;3.50;;;10.20;99.90;;;;;;5086639;28;20502;-80
2023/01/03 06:23:51;;;;;;;6.75;3.75;;;10.20;99.90;;;;;;5080939;28;20266;-79
2023/01/03 06:26:40;;;;;;;8.10;3.10;;;10.30;99.90;;;;;;5109829;27;20218;-79
2023/01/03 06:29:31;;;;;;;6.95;3.30;;;10.20;99.90;;;;;;5078107;28;20320;-77
2023/01/03 06:32:19;;;;;;;4.65;2.70;;;10.30;99.90;;;;;;5073306;28;21057;-79
2023/01/03 06:35:09;;;;;;;4.35;2.60;;;10.20;99.90;;;;;;5076228;28;20217;-78
2023/01/03 06:37:58;;;;;;;5.97;2.30;;;10.20;99.90;;;;;;5081929;28;20305;-81
2023/01/03 06:40:48;;;;;;;3.80;2.58;;;10.30;99.90;;;;;;5085801;28;20215;-80
2023/01/03 06:43:37;;;;;;;4.53;2.40;;;10.20;99.90;;;;;;5094954;28;20233;-81
2023/01/03 06:55:47;;;;;;;7.65;1.90;;;10.30;99.90;;;;;;5078847;28;20976;-80
2023/01/03 06:58:44;;;;;;;7.82;2.20;;;10.30;99.90;;;;;;5074801;28;20258;-79
2023/01/03 07:01:34;;;;;;;3.35;1.92;;;10.30;99.90;;;;;;5075227;28;20224;-81
2023/01/03 07:04:25;;;;;;;4.97;1.98;;;10.30;99.90;;;;;;5089874;28;20919;-79
2023/01/03 07:07:13;;;;;;;5.00;1.83;;;10.30;99.90;;;;;;5081342;28;20574;-81
2023/01/03 07:10:02;;;;;;;8.98;1.80;;;10.40;99.90;;;;;;5106881;27;20215;-81
2023/01/03 07:15:57;;;;;;;5.13;2.25;;;10.20;99.90;;;;;;5097604;28;20309;-81
2023/01/03 07:18:50;;;;;;;3.58;1.98;;;10.20;99.90;;;;;;5073893;28;20323;-79
2023/01/03 07:21:45;;;;;;;8.70;2.33;;;10.30;99.90;;;;;;5109220;27;20226;-78
2023/01/03 07:24:34;;;;;;;7.93;2.40;;;10.30;99.90;;;;;;5088238;28;20228;-80
2023/01/03 07:27:23;;;;;;;5.75;2.22;;;10.30;99.90;;;;;;5088659;28;20222;-83
2023/01/03 07:30:13;;;;;;;6.90;2.50;;;10.30;99.90;;;;;;5073605;28;20235;-86
2023/01/03 07:33:03;;;;;;;4.25;2.25;;;10.30;99.90;;;;;;5082072;28;20247;-87
2023/01/03 07:36:08;;;;;;;5.78;2.70;;;10.20;99.90;;;;;;5095925;28;20219;-91
2023/01/03 07:38:59;;;;;;;6.15;2.95;;;10.40;99.90;;;;;;5096561;27;20234;-80
2023/01/03 07:44:55;;;;;;;7.03;2.90;;;10.30;99.90;;;;;;5082916;28;20219;-80
2023/01/03 07:47:44;;;;;;;7.70;3.17;;;10.30;99.90;;;;;;5087210;28;20220;-80
2023/01/03 07:50:33;;;;;;;18.10;10.07;;;10.40;99.90;;;;;;5082708;28;20723;-82
2023/01/03 07:53:23;;;;;;;7.82;3.28;;;10.40;99.90;;;;;;5105236;27;20230;-81
2023/01/03 07:56:15;;;;;;;7.57;3.85;;;10.40;99.90;;;;;;5108660;27;20264;-80
2023/01/03 07:59:04;;;;;;;9.30;3.63;;;10.50;99.90;;;;;;5082891;28;20225;-80
2023/01/03 08:01:53;;;;;;;9.65;4.22;;;10.50;99.90;;;;;;5076379;28;20378;-80
2023/01/03 08:04:42;;;;;;;7.70;4.35;;;10.30;99.90;;;;;;5081039;28;20216;-80
2023/01/03 08:07:31;;;;;;;6.35;4.28;;;10.40;99.90;;;;;;5079526;28;20277;-81
2023/01/03 08:13:29;;;;;;;9.90;5.15;;;10.50;99.90;;;;;;5104587;27;20654;-82
2023/01/03 08:16:19;;;;;;;7.85;4.30;;;10.40;99.90;;;;;;5083396;27;20311;-80
2023/01/03 08:19:08;;;;;;;8.30;4.80;;;10.40;99.90;;;;;;5076303;28;20223;-79
2023/01/03 08:21:56;;;;;;;9.35;4.28;;;10.40;99.90;;;;;;5079725;28;20301;-81
2023/01/03 08:24:45;;;;;;;8.60;4.72;;;10.60;99.90;;;;;;5078964;28;20230;-80
2023/01/03 08:27:36;;;;;;;7.05;5.15;;;10.70;99.90;;;;;;5079067;28;20262;-80
2023/01/03 08:30:25;;;;;;;9.13;5.07;;;10.70;99.90;;;;;;5084008;28;20220;-79
2023/01/03 08:33:15;;;;;;;11.65;5.65;;;10.60;99.90;;;;;;5089541;28;20306;-80
2023/01/03 08:36:07;;;;;;;9.05;5.95;;;10.50;99.90;;;;;;5077266;28;20220;-81
2023/01/03 08:39:01;;;;;;;11.13;6.60;;;10.40;99.90;;;;;;5077465;28;20228;-80
2023/01/03 08:41:53;;;;;;;8.48;6.50;;;10.50;99.90;;;;;;5083654;27;20218;-80
2023/01/03 08:44:43;;;;;;;10.38;6.45;;;10.60;99.90;;;;;;5079296;28;20729;-80
2023/01/03 08:47:34;;;;;;;8.35;6.43;;;10.70;99.90;;;;;;5084414;28;20804;-79
2023/01/03 08:50:23;;;;;;;10.35;6.47;;;10.70;99.90;;;;;;5087151;28;20223;-80
2023/01/03 08:53:12;;;;;;;8.32;5.85;;;10.80;99.90;;;;;;5097846;28;20694;-79
2023/01/03 08:56:01;;;;;;;8.13;6.07;;;10.80;99.90;;;;;;5075040;28;20234;-80
2023/01/03 08:58:50;;;;;;;8.00;6.10;;;10.80;99.90;;;;;;5083819;28;20230;-83
2023/01/03 09:01:40;;;;;;;7.13;5.53;;;10.60;99.90;;;;;;5074422;28;20288;-82
2023/01/03 09:04:29;;;;;;;6.25;5.32;;;10.60;99.90;;;;;;5079961;28;20227;-83
2023/01/03 09:07:18;;;;;;;6.13;5.10;;;10.70;99.90;;;;;;5078133;28;20224;-83
2023/01/03 09:10:08;;;;;;;10.60;5.22;;;10.70;99.90;;;;;;5077894;28;20215;-83
2023/01/03 09:12:57;;;;;;;9.13;5.38;;;10.90;99.90;;;;;;5083833;28;20644;-85
2023/01/03 09:15:46;;;;;;;8.98;4.82;;;10.90;99.90;;;;;;5087613;27;20294;-84
2023/01/03 09:18:37;;;;;;;6.60;4.63;;;10.80;99.90;;;;;;5094740;28;20244;-80
2023/01/03 09:21:27;;;;;;;7.63;4.57;;;10.90;99.90;;;;;;5080453;28;20268;-83
2023/01/03 09:24:16;;;;;;;7.35;3.67;;;10.80;99.90;;;;;;5097264;27;20487;-83
2023/01/03 09:27:05;;;;;;;5.68;3.70;;;10.90;99.90;;;;;;5079092;27;20224;-83
2023/01/03 09:29:53;;;;;;;4.50;3.35;;;10.90;99.90;;;;;;5075840;28;20223;-83
2023/01/03 09:32:43;;;;;;;6.07;3.78;;;10.90;99.90;;;;;;5089955;27;20254;-83
2023/01/03 09:35:33;;;;;;;4.55;2.80;;;10.90;99.90;;;;;;5075375;28;20223;-85
2023/01/03 09:38:23;;;;;;;5.95;3.30;;;10.90;99.90;;;;;;5078524;28;20257;-83
2023/01/03 09:41:21;;;;;;;6.38;2.80;;;11.00;99.90;;;;;;5079896;28;20306;-82
2023/01/03 09:44:11;;;;;;;3.75;2.67;;;11.00;99.90;;;;;;5070074;28;20681;-84
2023/01/03 09:47:01;;;;;;;3.90;2.60;;;11.00;99.90;;;;;;5074683;28;20720;-83
2023/01/03 09:49:51;;;;;;;6.05;2.80;;;10.80;99.90;;;;;;5076480;28;20261;-85
2023/01/03 10:06:14;;;;;;;5.72;2.60;;;10.70;99.90;;;;;;5083564;28;20233;-82
2023/01/03 10:09:19;;;;;;;3.38;1.90;;;10.60;99.90;;;;;;5072863;28;20227;-83
2023/01/03 10:12:16;;;;;;;3.72;2.00;;;10.50;99.90;;;;;;5072537;28;20219;-81
2023/01/03 10:15:17;;;;;;;3.55;1.95;;;10.60;99.90;;;;;;5074877;28;20226;-82
2023/01/03 10:18:17;;;;;;;7.78;3.20;;;10.50;99.90;;;;;;5075999;27;20257;-82
2023/01/03 10:21:09;;;;;;;4.30;2.20;;;10.60;99.90;;;;;;5110484;27;21002;-81
2023/01/03 10:23:59;;;;;;;3.97;1.83;;;10.70;99.90;;;;;;5084241;28;20227;-80
2023/01/03 10:26:52;;;;;;;4.40;2.10;;;10.60;99.90;;;;;;5085269;28;20232;-83
2023/01/03 10:29:41;;;;;;;5.13;1.80;;;10.60;99.90;;;;;;5076143;28;20234;-82
2023/01/03 10:32:45;;;;;;;4.45;1.80;;;10.60;99.90;;;;;;5079987;28;20296;-84
2023/01/03 10:35:35;;;;;;;4.43;1.90;;;10.70;99.90;;;;;;5078607;28;20295;-82
2023/01/03 10:38:25;;;;;;;4.28;1.83;;;10.80;99.90;;;;;;5082547;28;20771;-83
2023/01/03 10:41:21;;;;;;;6.80;2.17;;;10.80;99.90;;;;;;5083204;28;20874;-81
2023/01/03 10:44:23;;;;;;;6.07;1.98;;;10.90;99.90;;;;;;5079894;28;20697;-80
2023/01/03 10:47:17;;;;;;;5.63;1.70;;;10.80;99.90;;;;;;5079554;28;20301;-80
2023/01/03 10:50:07;;;;;;;6.05;2.30;;;10.70;99.90;;;;;;5073955;28;20224;-81
2023/01/03 10:53:00;;;;;;;4.05;1.90;;;10.70;99.90;;;;;;5078699;28;20273;-78
2023/01/03 10:55:51;;;;;;;4.05;1.90;;;10.90;99.90;;;;;;5077015;28;20227;-80
2023/01/03 10:58:40;;;;;;;5.10;1.90;;;10.90;99.90;;;;;;5089506;28;20220;-79
2023/01/03 11:01:31;;;;;;;6.40;2.00;;;11.20;99.90;;;;;;5128745;27;20223;-80
2023/01/03 11:04:20;;;;;;;7.18;1.90;;;11.20;99.90;;;;;;5085767;28;20373;-80
2023/01/03 11:07:14;;;;;;;8.48;1.90;;;11.20;99.90;;;;;;5081211;28;20829;-80
2023/01/03 11:10:04;;;;;;;4.38;1.73;;;11.00;99.90;;;;;;5110146;27;20789;-79
2023/01/03 11:12:53;;;;;;;2.88;1.83;;;11.00;99.90;;;;;;5081183;28;20275;-79
2023/01/03 11:15:43;;;;;;;6.82;1.65;;;10.90;99.90;;;;;;5084136;28;20687;-79
2023/01/03 11:18:33;;;;;;;4.63;2.00;;;10.80;99.90;;;;;;5083142;28;20227;-82
2023/01/03 11:21:29;;;;;;;5.55;3.33;;;10.60;99.90;;;;;;5083379;28;20380;-81
2023/01/03 11:24:29;;;;;;;7.53;1.85;;;10.40;99.90;;;;;;5094059;27;20246;-80
2023/01/03 11:27:28;;;;;;;4.93;1.95;;;10.30;99.90;;;;;;5082427;28;20219;-80
2023/01/03 11:30:30;;;;;;;4.53;1.75;;;10.30;99.90;;;;;;5077140;28;20216;-81
2023/01/03 11:33:32;;;;;;;6.30;2.15;;;10.10;99.90;;;;;;5078145;27;20218;-81
2023/01/03 11:36:34;;;;;;;5.97;1.92;;;10.10;99.90;;;;;;5077846;28;20582;-81
2023/01/03 11:39:55;;;;;;;4.65;2.10;;;10.10;99.90;;;;;;5070421;28;20214;-79
2023/01/03 11:42:58;;;;;;;6.07;2.20;;;10.00;99.90;;;;;;5076815;28;20222;-81
2023/01/03 11:46:08;;;;;;;5.55;2.20;;;10.00;99.90;;;;;;5076342;28;20607;-81
2023/01/03 11:49:18;;;;;;;8.15;2.30;;;10.10;99.90;;;;;;5077739;28;20221;-81
2023/01/03 11:52:22;;;;;;;9.52;2.00;;;10.00;99.90;;;;;;5073790;28;20223;-80
2023/01/03 11:55:32;;;;;;;6.72;2.00;;;9.80;99.90;;;;;;5088777;27;20261;-80
2023/01/03 11:58:46;;;;;;;5.72;1.88;;;9.80;99.90;;;;;;5090604;28;20441;-80
2023/01/03 12:01:51;;;;;;;9.68;2.00;;;9.70;99.90;;;;;;5079537;28;20227;-82
2023/01/03 12:04:52;;;;;;;5.80;2.00;;;9.50;99.90;;;;;;5076934;28;20226;-81
2023/01/03 12:07:55;;;;;;;4.50;1.95;;;9.50;99.90;;;;;;5077894;28;20219;-81
2023/01/03 12:10:52;;;;;;;6.78;2.20;;;9.60;99.90;;;;;;5075682;28;20223;-81
2023/01/03 12:13:47;;;;;;;6.43;1.88;;;9.70;99.90;;;;;;5106075;27;20227;-81
2023/01/03 12:16:41;;;;;;;5.05;1.90;;;9.60;99.90;;;;;;5096052;28;20226;-81
2023/01/03 12:19:38;;;;;;;5.30;2.60;;;9.60;99.90;;;;;;5083673;28;20704;-81
2023/01/03 12:22:33;;;;;;;10.30;2.42;;;9.50;99.90;;;;;;5087674;27;20255;-81
2023/01/03 12:25:28;;;;;;;3.88;1.92;;;9.50;99.90;;;;;;5109501;27;20599;-81
2023/01/03 12:28:24;;;;;;;5.78;2.40;;;9.50;99.90;;;;;;5089390;28;20227;-81
2023/01/03 12:31:22;;;;;;;8.68;2.58;;;9.40;99.90;;;;;;5090796;28;20686;-81
2023/01/03 12:34:26;;;;;;;9.25;2.28;;;9.50;99.90;;;;;;5082568;28;20732;-79
2023/01/03 12:37:19;;;;;;;6.25;2.30;;;9.40;99.90;;;;;;5075757;28;20243;-81
2023/01/03 12:40:20;;;;;;;5.60;2.30;;;9.40;99.90;;;;;;5103149;27;20227;-80
2023/01/03 12:43:16;;;;;;;5.70;1.70;;;9.40;99.90;;;;;;5091616;28;20227;-81
2023/01/03 12:46:11;;;;;;;5.68;1.73;;;9.40;99.90;;;;;;5078091;28;20220;-81
2023/01/03 12:49:10;;;;;;;3.80;1.70;;;9.30;99.90;;;;;;5069477;28;20255;-81
2023/01/03 12:51:59;;;;;;;4.30;1.75;;;9.30;99.90;;;;;;5077260;28;21035;-81
2023/01/03 12:54:55;;;;;;;8.70;2.10;;;9.10;99.90;;;;;;5077557;28;20220;-80
2023/01/03 12:58:05;;;;;;;5.10;2.00;;;9.10;99.90;;;;;;5080331;28;20219;-79
2023/01/03 13:01:00;;;;;;;6.75;1.70;;;9.10;99.90;;;;;;5078118;28;20215;-81
2023/01/03 13:03:54;;;;;;;6.63;1.98;;;9.00;99.90;;;;;;5070247;28;20263;-81
2023/01/03 13:06:48;;;;;;;6.78;2.10;;;9.00;99.90;;;;;;5089328;28;20283;-81
2023/01/03 13:09:41;;;;;;;7.28;2.05;;;9.00;99.90;;;;;;5090257;28;20644;-81
2023/01/03 13:12:33;;;;;;;4.35;2.00;;;9.00;99.90;;;;;;5119358;27;20219;-81
2023/01/03 13:15:29;;;;;;;7.05;2.30;;;9.10;99.90;;;;;;5082568;28;20404;-77
2023/01/03 13:18:38;;;;;;;8.65;2.42;;;9.10;99.90;;;;;;5080187;28;20226;-90
2023/01/03 13:22:02;;;;;;;5.30;2.08;;;9.00;99.90;;;;;;5096564;27;20384;-80
2023/01/03 13:24:52;;;;;;;9.90;2.50;;;9.00;99.90;;;;;;5079635;28;20231;-79
2023/01/03 13:27:49;;;;;;;4.25;1.90;;;9.00;99.90;;;;;;5077908;28;20216;-83
2023/01/03 13:30:38;;;;;;;6.25;1.70;;;8.90;99.90;;;;;;5091907;28;20258;-80
2023/01/03 13:33:27;;;;;;;7.05;2.20;;;9.00;99.90;;;;;;5091575;27;20231;-81
2023/01/03 13:36:18;;;;;;;5.25;2.35;;;9.10;99.90;;;;;;5077688;28;20316;-80
2023/01/03 13:39:39;;;;;;;3.20;2.00;;;9.20;99.90;;;;;;5071591;28;20226;-82
2023/01/03 13:42:30;;;;;;;5.75;2.75;;;9.20;99.90;;;;;;5079964;27;20230;-82
2023/01/03 13:45:55;;;;;;;8.75;2.70;;;9.10;99.90;;;;;;5087814;28;20222;-80
2023/01/03 13:48:55;;;;;;;8.68;3.88;;;9.00;99.90;;;;;;5077607;28;20219;-81
2023/01/03 13:51:50;;;;;;;7.95;2.72;;;9.10;99.90;;;;;;5104957;27;20306;-81
2023/01/03 13:55:32;;;;;;;8.98;2.70;;;9.00;99.90;;;;;;5080677;28;20228;-81
2023/01/03 13:58:37;;;;;;;9.52;2.88;;;8.90;99.90;;;;;;5100965;27;20227;-82
2023/01/03 14:01:40;;;;;;;9.65;3.22;;;8.80;99.90;;;;;;5081141;28;20304;-82
2023/01/03 14:05:05;;;;;;;8.02;2.78;;;8.80;99.90;;;;;;5076923;28;20710;-81
2023/01/03 14:08:15;;;;;;;8.07;2.63;;;8.70;99.90;;;;;;5078042;28;20216;-80
2023/01/03 14:11:30;;;;;;;9.85;3.72;;;8.70;99.90;;;;;;5090419;28;20219;-79
2023/01/03 14:14:24;;;;;;;6.40;3.00;;;8.60;99.90;;;;;;5060693;27;20234;-80
2023/01/03 14:17:17;;;;;;;8.45;2.85;;;8.60;99.90;;;;;;5079401;28;20594;-80
2023/01/03 14:20:13;;;;;;;5.65;2.50;;;8.70;99.90;;;;;;5074661;28;20234;-81
2023/01/03 14:23:08;;;;;;;4.75;2.75;;;8.60;99.90;;;;;;5081978;28;20224;-80
2023/01/03 14:26:19;;;;;;;9.82;2.90;;;8.60;99.90;;;;;;5106332;27;20224;-82
2023/01/03 14:29:14;;;;;;;8.32;3.28;;;8.70;99.90;;;;;;5106779;27;20223;-80
2023/01/03 14:32:04;;;;;;;8.27;3.05;;;8.60;99.90;;;;;;5073277;28;20242;-81
2023/01/03 14:34:53;;;;;;;7.22;3.08;;;8.60;99.90;;;;;;5082293;28;20219;-80
2023/01/03 14:37:46;;;;;;;7.35;3.17;;;8.40;99.90;;;;;;5086584;28;20229;-81
2023/01/03 14:40:37;;;;;;;8.80;3.28;;;8.40;99.90;;;;;;5100505;28;20227;-82
2023/01/03 14:43:26;;;;;;;6.90;3.53;;;8.40;99.90;;;;;;5071701;28;20220;-82
2023/01/03 14:46:16;;;;;;;13.60;3.05;;;8.40;99.90;;;;;;5074406;28;20313;-81
2023/01/03 14:49:17;;;;;;;7.55;3.45;;;8.40;99.90;;;;;;5075315;28;20902;-82
2023/01/03 14:52:08;;;;;;;6.00;3.20;;;8.30;99.90;;;;;;5079344;28;20222;-83
2023/01/03 14:55:01;;;;;;;10.05;3.40;;;8.40;99.90;;;;;;5110485;27;20594;-81
2023/01/03 14:57:54;;;;;;;7.03;3.70;;;8.40;99.90;;;;;;5081881;28;20231;-81
2023/01/03 15:00:43;;;;;;;10.48;3.67;;;8.40;99.90;;;;;;5082600;28;20239;-82
2023/01/03 15:03:36;;;;;;;10.98;3.97;;;8.30;99.90;;;;;;5075121;28;20591;-82
2023/01/03 15:06:28;;;;;;;7.38;3.65;;;8.40;99.90;;;;;;5083681;28;20671;-78
2023/01/03 15:09:21;;;;;;;7.97;3.45;;;8.20;99.90;;;;;;5082110;28;20216;-80
2023/01/03 15:12:15;;;;;;;13.40;4.15;;;8.20;99.90;;;;;;5084402;28;20221;-81
2023/01/03 15:15:19;;;;;;;7.93;3.80;;;8.20;99.90;;;;;;5081022;27;20235;-82
2023/01/03 15:18:11;;;;;;;12.05;4.20;;;8.20;99.90;;;;;;5077781;28;20328;-82
2023/01/03 15:21:07;;;;;;;15.57;4.22;;;8.10;99.90;;;;;;5075481;28;20227;-82
2023/01/03 15:23:57;;;;;;;12.57;4.18;;;8.10;99.90;;;;;;5078235;28;20216;-81
2023/01/03 15:26:48;;;;;;;9.15;3.70;;;8.10;99.90;;;;;;5086166;28;20223;-81
2023/01/03 15:29:44;;;;;;;7.32;3.72;;;8.10;99.90;;;;;;5079613;28;20230;-81
2023/01/03 15:32:49;;;;;;;8.15;4.53;;;8.00;99.90;;;;;;5081252;28;20215;-81
2023/01/03 15:35:40;;;;;;;10.90;4.50;;;8.00;99.90;;;;;;5080618;28;20270;-82
2023/01/03 15:38:33;;;;;;;13.02;4.45;;;8.00;99.90;;;;;;5081705;28;20219;-82
2023/01/03 15:44:29;;;;;;;11.73;4.80;;;7.90;99.90;;;;;;5109363;28;20714;-82
2023/01/03 15:47:30;;;;;;;8.10;4.30;;;7.90;99.90;;;;;;5082022;28;20234;-80
2023/01/03 15:50:22;;;;;;;11.57;4.82;;;7.90;99.90;;;;;;5079674;28;20211;-81
2023/01/03 15:53:23;;;;;;;8.02;4.35;;;7.90;99.90;;;;;;5111031;27;20223;-81
2023/01/03 15:56:17;;;;;;;14.57;5.10;;;7.90;99.90;;;;;;5098555;27;20301;-81
2023/01/03 15:59:09;;;;;;;14.27;5.20;;;7.90;99.90;;;;;;5078946;28;20326;-81
2023/01/03 16:01:58;;;;;;;12.00;5.25;;;7.80;99.90;;;;;;5078653;28;20263;-82
2023/01/03 16:04:48;;;;;;;7.95;4.78;;;7.80;99.90;;;;;;5078195;28;20211;-81